sensor_id;sensor_type;location;lat;lon;timestamp;pressure;altitude;pressure_sealevel;temperature;humidity
74708;BME280;63360;50.104;8.074;2023-05-10T00:00:04;96469.31;;;11.07;100.00
74708;BME280;63360;50.104;8.074;2023-05-10T00:02:30;96471.91;;;11.07;100.00
74708;BME280;63360;50.104;8.074;2023-05-10T00:04:57;96477.53;;;11.09;100.00
74708;BME280;63360;50.104;8.074;2023-05-10T00:07:23;96473.75;;;11.06;100.00
74708;BME280;63360;50.104;8.074;2023-05-10T00:09:50;96479.47;;;11.00;100.00
74708;BME280;63360;50.104;8.074;2023-05-10T00:12:16;96467.56;;;10.99;100.00
74708;BME280;63360;50.104;8.074;2023-05-10T00:14:43;96479.47;;;11.00;100.00
74708;BME280;63360;50.104;8.074;2023-05-10T00:17:09;96476.22;;;11.03;100.00
74708;BME280;63360;50.104;8.074;2023-05-10T00:19:36;96472.97;;;10.93;100.00
74708;BME280;63360;50.104;8.074;2023-05-10T00:22:02;96483.47;;;10.97;100.00
74708;BME280;63360;50.104;8.074;2023-05-10T00:24:29;96469.19;;;10.91;100.00
74708;BME280;63360;50.104;8.074;2023-05-10T00:26:55;96474.38;;;10.91;100.00
74708;BME280;63360;50.104;8.074;2023-05-10T00:29:21;96483.81;;;10.95;100.00
74708;BME280;63360;50.104;8.074;2023-05-10T00:31:48;96487.81;;;10.93;100.00
74708;BME280;63360;50.104;8.074;2023-05-10T00:34:14;96485.53;;;10.91;100.00
74708;BME280;63360;50.104;8.074;2023-05-10T00:36:41;96477.50;;;10.84;100.00
74708;BME280;63360;50.104;8.074;2023-05-10T00:39:07;96475.97;;;10.83;100.00
74708;BME280;63360;50.104;8.074;2023-05-10T00:41:34;96477.72;;;10.91;100.00
74708;BME280;63360;50.104;8.074;2023-05-10T00:44:00;96472.16;;;10.81;100.00
74708;BME280;63360;50.104;8.074;2023-05-10T00:46:28;96486.16;;;10.76;100.00
74708;BME280;63360;50.104;8.074;2023-05-10T00:48:55;96483.78;;;10.83;100.00
74708;BME280;63360;50.104;8.074;2023-05-10T00:51:21;96476.38;;;10.73;100.00
74708;BME280;63360;50.104;8.074;2023-05-10T00:53:48;96483.97;;;10.78;100.00
74708;BME280;63360;50.104;8.074;2023-05-10T00:56:15;96482.69;;;10.72;100.00
74708;BME280;63360;50.104;8.074;2023-05-10T00:58:42;96480.94;;;10.76;100.00
74708;BME280;63360;50.104;8.074;2023-05-10T01:01:09;96481.28;;;10.75;100.00
74708;BME280;63360;50.104;8.074;2023-05-10T01:03:36;96486.78;;;10.73;100.00
74708;BME280;63360;50.104;8.074;2023-05-10T01:06:03;96482.91;;;10.79;100.00
74708;BME280;63360;50.104;8.074;2023-05-10T01:08:29;96486.91;;;10.77;100.00
74708;BME280;63360;50.104;8.074;2023-05-10T01:10:56;96474.41;;;10.70;100.00
74708;BME280;63360;50.104;8.074;2023-05-10T01:13:31;96480.38;;;10.71;100.00
74708;BME280;63360;50.104;8.074;2023-05-10T01:15:59;96484.63;;;10.75;100.00
74708;BME280;63360;50.104;8.074;2023-05-10T01:18:29;96485.59;;;10.71;100.00
74708;BME280;63360;50.104;8.074;2023-05-10T01:21:07;96483.00;;;10.71;100.00
74708;BME280;63360;50.104;8.074;2023-05-10T01:29:11;96494.38;;;10.66;100.00
74708;BME280;63360;50.104;8.074;2023-05-10T01:34:36;96486.63;;;10.58;100.00
74708;BME280;63360;50.104;8.074;2023-05-10T01:37:10;96485.56;;;10.59;100.00
74708;BME280;63360;50.104;8.074;2023-05-10T01:39:44;96494.38;;;10.66;100.00
74708;BME280;63360;50.104;8.074;2023-05-10T01:42:17;96493.16;;;10.64;100.00
74708;BME280;63360;50.104;8.074;2023-05-10T01:44:51;96480.88;;;10.52;100.00
74708;BME280;63360;50.104;8.074;2023-05-10T01:47:46;96490.97;;;10.54;100.00
74708;BME280;63360;50.104;8.074;2023-05-10T01:50:17;96490.00;;;10.58;100.00
74708;BME280;63360;50.104;8.074;2023-05-10T01:52:53;96496.72;;;10.59;100.00
74708;BME280;63360;50.104;8.074;2023-05-10T01:55:24;96502.16;;;10.66;100.00
74708;BME280;63360;50.104;8.074;2023-05-10T01:57:58;96494.78;;;10.56;100.00
74708;BME280;63360;50.104;8.074;2023-05-10T02:00:27;96493.88;;;10.52;100.00
74708;BME280;63360;50.104;8.074;2023-05-10T02:02:55;96503.50;;;10.52;100.00
74708;BME280;63360;50.104;8.074;2023-05-10T02:05:22;96502.94;;;10.46;100.00
74708;BME280;63360;50.104;8.074;2023-05-10T02:07:49;96510.69;;;10.55;100.00
74708;BME280;63360;50.104;8.074;2023-05-10T02:10:16;96497.88;;;10.50;100.00
74708;BME280;63360;50.104;8.074;2023-05-10T02:12:46;96509.19;;;10.54;100.00
74708;BME280;63360;50.104;8.074;2023-05-10T02:15:18;96516.84;;;10.50;100.00
74708;BME280;63360;50.104;8.074;2023-05-10T02:17:46;96519.44;;;10.50;100.00
74708;BME280;63360;50.104;8.074;2023-05-10T02:20:13;96520.09;;;10.47;100.00
74708;BME280;63360;50.104;8.074;2023-05-10T02:22:42;96510.66;;;10.43;100.00
74708;BME280;63360;50.104;8.074;2023-05-10T02:25:11;96511.72;;;10.42;100.00
74708;BME280;63360;50.104;8.074;2023-05-10T02:27:41;96505.31;;;10.39;100.00
74708;BME280;63360;50.104;8.074;2023-05-10T02:30:09;96519.94;;;10.44;100.00
74708;BME280;63360;50.104;8.074;2023-05-10T02:32:36;96516.72;;;10.47;100.00
74708;BME280;63360;50.104;8.074;2023-05-10T02:35:04;96526.81;;;10.48;100.00
74708;BME280;63360;50.104;8.074;2023-05-10T02:37:32;96516.50;;;10.52;100.00
74708;BME280;63360;50.104;8.074;2023-05-10T02:40:00;96528.00;;;10.51;100.00
74708;BME280;63360;50.104;8.074;2023-05-10T02:42:31;96520.94;;;10.51;100.00
74708;BME280;63360;50.104;8.074;2023-05-10T02:45:05;96527.69;;;10.52;100.00
74708;BME280;63360;50.104;8.074;2023-05-10T02:47:34;96522.91;;;10.54;100.00
74708;BME280;63360;50.104;8.074;2023-05-10T02:50:00;96530.09;;;10.57;100.00
74708;BME280;63360;50.104;8.074;2023-05-10T02:52:30;96529.41;;;10.48;100.00
74708;BME280;63360;50.104;8.074;2023-05-10T02:55:02;96539.84;;;10.60;100.00
74708;BME280;63360;50.104;8.074;2023-05-10T02:57:34;96536.81;;;10.58;100.00
74708;BME280;63360;50.104;8.074;2023-05-10T03:00:03;96533.69;;;10.65;100.00
74708;BME280;63360;50.104;8.074;2023-05-10T03:02:30;96531.91;;;10.57;100.00
74708;BME280;63360;50.104;8.074;2023-05-10T03:04:57;96529.00;;;10.58;100.00
74708;BME280;63360;50.104;8.074;2023-05-10T03:07:23;96530.84;;;10.58;100.00
74708;BME280;63360;50.104;8.074;2023-05-10T03:09:50;96532.00;;;10.48;100.00
74708;BME280;63360;50.104;8.074;2023-05-10T03:20:59;96536.94;;;10.62;100.00
74708;BME280;63360;50.104;8.074;2023-05-10T03:23:47;96534.34;;;10.62;100.00
74708;BME280;63360;50.104;8.074;2023-05-10T03:26:43;96545.94;;;10.64;100.00
74708;BME280;63360;50.104;8.074;2023-05-10T03:29:12;96538.78;;;10.61;100.00
74708;BME280;63360;50.104;8.074;2023-05-10T03:31:39;96531.19;;;10.56;100.00
74708;BME280;63360;50.104;8.074;2023-05-10T03:34:05;96540.75;;;10.64;100.00
74708;BME280;63360;50.104;8.074;2023-05-10T03:36:33;96534.97;;;10.59;100.00
74708;BME280;63360;50.104;8.074;2023-05-10T03:38:59;96551.16;;;10.64;100.00
74708;BME280;63360;50.104;8.074;2023-05-10T03:41:25;96534.97;;;10.59;100.00
74708;BME280;63360;50.104;8.074;2023-05-10T03:43:52;96549.28;;;10.65;100.00
74708;BME280;63360;50.104;8.074;2023-05-10T03:46:18;96554.19;;;10.66;100.00
74708;BME280;63360;50.104;8.074;2023-05-10T03:48:45;96535.41;;;10.61;100.00
74708;BME280;63360;50.104;8.074;2023-05-10T03:51:11;96559.19;;;10.71;100.00
74708;BME280;63360;50.104;8.074;2023-05-10T03:53:37;96563.97;;;10.69;100.00
74708;BME280;63360;50.104;8.074;2023-05-10T03:56:04;96556.03;;;10.66;100.00
74708;BME280;63360;50.104;8.074;2023-05-10T03:58:30;96549.75;;;10.67;100.00
74708;BME280;63360;50.104;8.074;2023-05-10T04:00:56;96548.09;;;10.62;100.00
74708;BME280;63360;50.104;8.074;2023-05-10T04:03:23;96540.28;;;10.62;100.00
74708;BME280;63360;50.104;8.074;2023-05-10T04:06:01;96564.69;;;10.70;100.00
74708;BME280;63360;50.104;8.074;2023-05-10T04:08:28;96548.44;;;10.73;100.00
74708;BME280;63360;50.104;8.074;2023-05-10T04:11:04;96541.47;;;10.65;100.00
74708;BME280;63360;50.104;8.074;2023-05-10T04:13:31;96540.75;;;10.64;100.00
74708;BME280;63360;50.104;8.074;2023-05-10T04:15:57;96545.19;;;10.64;100.00
74708;BME280;63360;50.104;8.074;2023-05-10T04:18:23;96547.44;;;10.65;100.00
74708;BME280;63360;50.104;8.074;2023-05-10T04:20:50;96539.09;;;10.60;100.00
74708;BME280;63360;50.104;8.074;2023-05-10T04:23:16;96556.16;;;10.69;100.00
74708;BME280;63360;50.104;8.074;2023-05-10T04:25:43;96551.88;;;10.65;100.00
74708;BME280;63360;50.104;8.074;2023-05-10T04:28:09;96555.19;;;10.74;100.00
74708;BME280;63360;50.104;8.074;2023-05-10T04:30:36;96556.25;;;10.73;100.00
74708;BME280;63360;50.104;8.074;2023-05-10T04:33:02;96563.31;;;10.72;100.00
74708;BME280;63360;50.104;8.074;2023-05-10T04:35:28;96555.81;;;10.71;100.00
74708;BME280;63360;50.104;8.074;2023-05-10T04:37:55;96568.19;;;10.74;100.00
74708;BME280;63360;50.104;8.074;2023-05-10T04:40:22;96560.72;;;10.72;100.00
74708;BME280;63360;50.104;8.074;2023-05-10T04:42:48;96573.72;;;10.72;100.00
74708;BME280;63360;50.104;8.074;2023-05-10T04:45:14;96579.16;;;10.79;100.00
74708;BME280;63360;50.104;8.074;2023-05-10T04:47:41;96585.22;;;10.83;100.00
74708;BME280;63360;50.104;8.074;2023-05-10T04:50:08;96580.38;;;10.82;100.00
74708;BME280;63360;50.104;8.074;2023-05-10T04:52:34;96593.44;;;10.73;100.00
74708;BME280;63360;50.104;8.074;2023-05-10T04:55:01;96595.84;;;10.78;100.00
74708;BME280;63360;50.104;8.074;2023-05-10T04:57:27;96598.34;;;10.75;100.00
74708;BME280;63360;50.104;8.074;2023-05-10T04:59:54;96603.97;;;10.77;100.00
74708;BME280;63360;50.104;8.074;2023-05-10T05:02:20;96599.28;;;10.70;100.00
74708;BME280;63360;50.104;8.074;2023-05-10T05:04:47;96597.78;;;10.69;100.00
74708;BME280;63360;50.104;8.074;2023-05-10T05:07:13;96600.94;;;10.75;100.00
74708;BME280;63360;50.104;8.074;2023-05-10T05:09:39;96594.69;;;10.67;100.00
74708;BME280;63360;50.104;8.074;2023-05-10T05:12:06;96606.88;;;10.75;100.00
74708;BME280;63360;50.104;8.074;2023-05-10T05:14:32;96594.84;;;10.71;100.00
74708;BME280;63360;50.104;8.074;2023-05-10T05:16:59;96603.22;;;10.76;100.00
74708;BME280;63360;50.104;8.074;2023-05-10T05:19:25;96611.25;;;10.83;100.00
74708;BME280;63360;50.104;8.074;2023-05-10T05:21:51;96597.25;;;10.76;100.00
74708;BME280;63360;50.104;8.074;2023-05-10T05:24:18;96609.31;;;10.80;100.00
74708;BME280;63360;50.104;8.074;2023-05-10T05:26:44;96612.53;;;10.77;100.00
74708;BME280;63360;50.104;8.074;2023-05-10T05:29:10;96616.44;;;10.83;100.00
74708;BME280;63360;50.104;8.074;2023-05-10T05:31:37;96603.00;;;10.81;100.00
74708;BME280;63360;50.104;8.074;2023-05-10T05:34:03;96606.03;;;10.83;100.00
74708;BME280;63360;50.104;8.074;2023-05-10T05:36:30;96609.63;;;10.79;100.00
74708;BME280;63360;50.104;8.074;2023-05-10T05:38:57;96612.78;;;10.84;100.00
74708;BME280;63360;50.104;8.074;2023-05-10T05:41:23;96617.16;;;10.92;100.00
74708;BME280;63360;50.104;8.074;2023-05-10T05:43:50;96620.00;;;11.00;100.00
74708;BME280;63360;50.104;8.074;2023-05-10T05:46:17;96619.16;;;11.08;100.00
74708;BME280;63360;50.104;8.074;2023-05-10T05:48:43;96618.72;;;11.06;100.00
74708;BME280;63360;50.104;8.074;2023-05-10T05:51:10;96613.75;;;11.13;100.00
74708;BME280;63360;50.104;8.074;2023-05-10T05:53:36;96609.88;;;11.19;100.00
74708;BME280;63360;50.104;8.074;2023-05-10T05:56:03;96610.28;;;11.09;100.00
74708;BME280;63360;50.104;8.074;2023-05-10T05:58:30;96620.59;;;11.17;100.00
74708;BME280;63360;50.104;8.074;2023-05-10T06:00:56;96607.13;;;11.15;100.00
74708;BME280;63360;50.104;8.074;2023-05-10T06:03:23;96617.03;;;11.22;100.00
74708;BME280;63360;50.104;8.074;2023-05-10T06:05:50;96620.41;;;11.22;100.00
74708;BME280;63360;50.104;8.074;2023-05-10T06:08:16;96616.41;;;11.25;100.00
74708;BME280;63360;50.104;8.074;2023-05-10T06:10:42;96616.63;;;11.32;100.00
74708;BME280;63360;50.104;8.074;2023-05-10T06:13:09;96626.72;;;11.33;100.00
74708;BME280;63360;50.104;8.074;2023-05-10T06:15:36;96625.22;;;11.44;100.00
74708;BME280;63360;50.104;8.074;2023-05-10T06:18:02;96630.13;;;11.58;100.00
74708;BME280;63360;50.104;8.074;2023-05-10T06:20:29;96625.31;;;11.93;100.00
74708;BME280;63360;50.104;8.074;2023-05-10T06:22:58;96623.03;;;11.91;100.00
74708;BME280;63360;50.104;8.074;2023-05-10T06:25:24;96630.63;;;12.08;100.00
74708;BME280;63360;50.104;8.074;2023-05-10T06:27:50;96633.53;;;12.43;100.00
74708;BME280;63360;50.104;8.074;2023-05-10T06:30:21;96626.53;;;12.59;100.00
74708;BME280;63360;50.104;8.074;2023-05-10T06:32:53;96634.44;;;13.03;100.00
74708;BME280;63360;50.104;8.074;2023-05-10T06:35:20;96633.91;;;13.53;100.00
74708;BME280;63360;50.104;8.074;2023-05-10T06:37:46;96641.06;;;13.56;100.00
74708;BME280;63360;50.104;8.074;2023-05-10T06:40:13;96646.81;;;13.92;100.00
74708;BME280;63360;50.104;8.074;2023-05-10T06:42:39;96661.91;;;13.83;100.00
74708;BME280;63360;50.104;8.074;2023-05-10T06:45:06;96660.63;;;13.62;100.00
74708;BME280;63360;50.104;8.074;2023-05-10T06:47:33;96656.47;;;13.45;100.00
74708;BME280;63360;50.104;8.074;2023-05-10T06:50:03;96654.16;;;13.00;100.00
74708;BME280;63360;50.104;8.074;2023-05-10T06:52:29;96656.28;;;12.83;100.00
74708;BME280;63360;50.104;8.074;2023-05-10T06:54:56;96658.16;;;13.10;100.00
74708;BME280;63360;50.104;8.074;2023-05-10T06:57:23;96661.06;;;13.79;100.00
74708;BME280;63360;50.104;8.074;2023-05-10T06:59:55;96661.25;;;14.02;100.00
74708;BME280;63360;50.104;8.074;2023-05-10T07:02:22;96653.47;;;14.56;100.00
74708;BME280;63360;50.104;8.074;2023-05-10T07:04:49;96654.75;;;14.62;100.00
74708;BME280;63360;50.104;8.074;2023-05-10T07:07:16;96664.97;;;14.51;100.00
74708;BME280;63360;50.104;8.074;2023-05-10T07:09:42;96662.22;;;14.44;100.00
74708;BME280;63360;50.104;8.074;2023-05-10T07:12:08;96676.94;;;14.02;100.00
74708;BME280;63360;50.104;8.074;2023-05-10T07:14:37;96666.88;;;14.04;100.00
74708;BME280;63360;50.104;8.074;2023-05-10T07:17:04;96671.25;;;13.84;100.00
74708;BME280;63360;50.104;8.074;2023-05-10T07:19:30;96676.88;;;13.55;100.00
74708;BME280;63360;50.104;8.074;2023-05-10T07:21:58;96672.44;;;13.28;100.00
74708;BME280;63360;50.104;8.074;2023-05-10T07:24:25;96676.78;;;13.08;100.00
74708;BME280;63360;50.104;8.074;2023-05-10T07:26:51;96670.53;;;12.85;100.00
74708;BME280;63360;50.104;8.074;2023-05-10T07:29:18;96683.78;;;12.80;100.00
74708;BME280;63360;50.104;8.074;2023-05-10T07:31:44;96692.94;;;12.74;100.00
74708;BME280;63360;50.104;8.074;2023-05-10T07:34:10;96688.03;;;12.72;100.00
74708;BME280;63360;50.104;8.074;2023-05-10T07:36:37;96695.00;;;12.68;100.00
74708;BME280;63360;50.104;8.074;2023-05-10T07:39:03;96697.63;;;12.68;100.00
74708;BME280;63360;50.104;8.074;2023-05-10T07:41:30;96701.75;;;12.69;100.00
74708;BME280;63360;50.104;8.074;2023-05-10T07:43:56;96703.06;;;12.63;100.00
74708;BME280;63360;50.104;8.074;2023-05-10T07:46:23;96696.88;;;12.56;100.00
74708;BME280;63360;50.104;8.074;2023-05-10T07:48:49;96719.69;;;12.59;100.00
74708;BME280;63360;50.104;8.074;2023-05-10T07:51:16;96710.56;;;12.41;100.00
74708;BME280;63360;50.104;8.074;2023-05-10T07:53:42;96705.81;;;12.31;100.00
74708;BME280;63360;50.104;8.074;2023-05-10T07:56:27;96715.78;;;12.41;100.00
74708;BME280;63360;50.104;8.074;2023-05-10T07:58:56;96715.81;;;12.29;100.00
74708;BME280;63360;50.104;8.074;2023-05-10T08:01:23;96706.66;;;12.23;100.00
74708;BME280;63360;50.104;8.074;2023-05-10T08:03:49;96724.06;;;12.19;100.00
74708;BME280;63360;50.104;8.074;2023-05-10T08:06:18;96712.97;;;12.09;100.00
74708;BME280;63360;50.104;8.074;2023-05-10T08:08:48;96711.97;;;12.14;100.00
74708;BME280;63360;50.104;8.074;2023-05-10T08:11:17;96716.78;;;12.24;100.00
74708;BME280;63360;50.104;8.074;2023-05-10T08:13:47;96713.81;;;12.13;100.00
74708;BME280;63360;50.104;8.074;2023-05-10T08:16:13;96715.34;;;12.14;100.00
74708;BME280;63360;50.104;8.074;2023-05-10T08:18:40;96717.31;;;12.05;100.00
74708;BME280;63360;50.104;8.074;2023-05-10T08:21:06;96725.66;;;12.11;100.00
74708;BME280;63360;50.104;8.074;2023-05-10T08:23:33;96719.47;;;12.03;100.00
74708;BME280;63360;50.104;8.074;2023-05-10T08:26:00;96719.94;;;12.05;100.00
74708;BME280;63360;50.104;8.074;2023-05-10T08:28:26;96728.94;;;12.20;100.00
74708;BME280;63360;50.104;8.074;2023-05-10T08:30:53;96725.59;;;12.32;100.00
74708;BME280;63360;50.104;8.074;2023-05-10T08:33:19;96721.97;;;12.48;100.00
74708;BME280;63360;50.104;8.074;2023-05-10T08:35:46;96722.63;;;12.57;100.00
74708;BME280;63360;50.104;8.074;2023-05-10T08:38:13;96720.00;;;12.69;100.00
74708;BME280;63360;50.104;8.074;2023-05-10T08:40:41;96732.72;;;12.83;100.00
74708;BME280;63360;50.104;8.074;2023-05-10T08:43:11;96727.19;;;12.85;100.00
74708;BME280;63360;50.104;8.074;2023-05-10T08:45:42;96725.75;;;12.87;100.00
74708;BME280;63360;50.104;8.074;2023-05-10T08:48:10;96730.63;;;12.89;100.00
74708;BME280;63360;50.104;8.074;2023-05-10T08:50:41;96739.13;;;12.98;100.00
74708;BME280;63360;50.104;8.074;2023-05-10T08:53:12;96732.47;;;12.88;100.00
74708;BME280;63360;50.104;8.074;2023-05-10T08:55:39;96732.41;;;12.85;100.00
74708;BME280;63360;50.104;8.074;2023-05-10T08:58:09;96738.06;;;12.74;100.00
74708;BME280;63360;50.104;8.074;2023-05-10T09:00:36;96738.06;;;12.74;100.00
74708;BME280;63360;50.104;8.074;2023-05-10T09:03:04;96743.25;;;12.87;100.00
74708;BME280;63360;50.104;8.074;2023-05-10T09:05:31;96741.41;;;12.87;100.00
74708;BME280;63360;50.104;8.074;2023-05-10T09:07:58;96746.63;;;12.87;100.00
74708;BME280;63360;50.104;8.074;2023-05-10T09:10:27;96748.16;;;12.76;100.00
74708;BME280;63360;50.104;8.074;2023-05-10T09:12:56;96754.81;;;12.61;100.00
74708;BME280;63360;50.104;8.074;2023-05-10T09:15:24;96752.53;;;12.60;100.00
74708;BME280;63360;50.104;8.074;2023-05-10T09:17:51;96759.94;;;12.58;100.00
74708;BME280;63360;50.104;8.074;2023-05-10T09:20:18;96771.34;;;12.53;100.00
74708;BME280;63360;50.104;8.074;2023-05-10T09:22:45;96774.81;;;12.45;100.00
74708;BME280;63360;50.104;8.074;2023-05-10T09:25:14;96774.94;;;12.37;100.00
74708;BME280;63360;50.104;8.074;2023-05-10T09:27:44;96755.91;;;12.24;100.00
74708;BME280;63360;50.104;8.074;2023-05-10T09:30:16;96767.41;;;12.23;100.00
74708;BME280;63360;50.104;8.074;2023-05-10T09:32:46;96769.69;;;12.25;100.00
74708;BME280;63360;50.104;8.074;2023-05-10T09:35:15;96774.25;;;12.28;100.00
74708;BME280;63360;50.104;8.074;2023-05-10T09:37:46;96760.56;;;12.31;100.00
74708;BME280;63360;50.104;8.074;2023-05-10T09:40:18;96769.69;;;12.49;100.00
74708;BME280;63360;50.104;8.074;2023-05-10T09:43:04;96777.31;;;12.54;100.00
74708;BME280;63360;50.104;8.074;2023-05-10T09:45:34;96773.28;;;12.56;100.00
74708;BME280;63360;50.104;8.074;2023-05-10T09:48:04;96781.91;;;12.69;100.00
74708;BME280;63360;50.104;8.074;2023-05-10T09:50:30;96767.75;;;12.58;100.00
74708;BME280;63360;50.104;8.074;2023-05-10T09:52:58;96782.84;;;12.64;100.00
74708;BME280;63360;50.104;8.074;2023-05-10T09:55:38;96780.81;;;12.58;100.00
74708;BME280;63360;50.104;8.074;2023-05-10T09:58:04;96779.06;;;12.62;100.00
74708;BME280;63360;50.104;8.074;2023-05-10T10:00:40;96781.13;;;12.68;100.00
74708;BME280;63360;50.104;8.074;2023-05-10T10:03:13;96775.69;;;12.61;100.00
74708;BME280;63360;50.104;8.074;2023-05-10T10:05:41;96779.50;;;12.64;100.00
74708;BME280;63360;50.104;8.074;2023-05-10T10:08:11;96776.75;;;12.72;100.00
74708;BME280;63360;50.104;8.074;2023-05-10T10:10:38;96778.28;;;12.86;100.00
74708;BME280;63360;50.104;8.074;2023-05-10T10:13:07;96782.97;;;12.92;100.00
74708;BME280;63360;50.104;8.074;2023-05-10T10:15:34;96779.34;;;12.97;100.00
74708;BME280;63360;50.104;8.074;2023-05-10T10:18:01;96773.47;;;13.00;100.00
74708;BME280;63360;50.104;8.074;2023-05-10T10:20:29;96784.16;;;13.07;100.00
74708;BME280;63360;50.104;8.074;2023-05-10T10:22:56;96784.91;;;13.07;100.00
74708;BME280;63360;50.104;8.074;2023-05-10T10:25:22;96794.25;;;13.20;100.00
74708;BME280;63360;50.104;8.074;2023-05-10T10:30:46;96800.09;;;13.29;100.00
74708;BME280;63360;50.104;8.074;2023-05-10T10:36:14;96784.84;;;13.31;100.00
74708;BME280;63360;50.104;8.074;2023-05-10T10:41:32;96800.47;;;13.56;100.00
74708;BME280;63360;50.104;8.074;2023-05-10T10:49:49;96800.88;;;13.58;97.92
74708;BME280;63360;50.104;8.074;2023-05-10T10:57:28;96800.94;;;13.46;93.26
74708;BME280;63360;50.104;8.074;2023-05-10T11:02:56;96811.28;;;13.42;96.54
74708;BME280;63360;50.104;8.074;2023-05-10T11:10:34;96812.50;;;13.32;96.17
74708;BME280;63360;50.104;8.074;2023-05-10T11:13:02;96810.31;;;13.34;94.46
74708;BME280;63360;50.104;8.074;2023-05-10T11:15:37;96807.47;;;13.40;96.40
74708;BME280;63360;50.104;8.074;2023-05-10T11:18:36;96815.63;;;13.50;91.09
74708;BME280;63360;50.104;8.074;2023-05-10T11:21:03;96812.22;;;13.50;94.32
74708;BME280;63360;50.104;8.074;2023-05-10T11:26:09;96802.69;;;13.69;94.96
74708;BME280;63360;50.104;8.074;2023-05-10T11:28:44;96805.78;;;13.87;87.45
74708;BME280;63360;50.104;8.074;2023-05-10T11:31:13;96799.56;;;13.91;87.38
74708;BME280;63360;50.104;8.074;2023-05-10T11:36:16;96815.63;;;14.21;87.76
74708;BME280;63360;50.104;8.074;2023-05-10T11:38:42;96817.91;;;14.23;86.90
74708;BME280;63360;50.104;8.074;2023-05-10T11:41:10;96809.56;;;14.17;87.71
74708;BME280;63360;50.104;8.074;2023-05-10T11:43:41;96814.88;;;14.21;89.72
74708;BME280;63360;50.104;8.074;2023-05-10T11:46:11;96814.69;;;14.14;85.98
74708;BME280;63360;50.104;8.074;2023-05-10T11:48:39;96806.06;;;14.13;89.88
74708;BME280;63360;50.104;8.074;2023-05-10T11:51:07;96806.53;;;14.15;87.96
74708;BME280;63360;50.104;8.074;2023-05-10T11:53:34;96802.53;;;14.21;86.97
74708;BME280;63360;50.104;8.074;2023-05-10T11:56:10;96809.66;;;14.21;87.23
74708;BME280;63360;50.104;8.074;2023-05-10T11:58:38;96817.97;;;14.38;82.92
74708;BME280;63360;50.104;8.074;2023-05-10T12:01:06;96809.34;;;14.38;77.57
74708;BME280;63360;50.104;8.074;2023-05-10T12:03:34;96803.41;;;14.25;78.89
74708;BME280;63360;50.104;8.074;2023-05-10T12:06:01;96808.38;;;14.30;83.11
74708;BME280;63360;50.104;8.074;2023-05-10T12:08:29;96811.75;;;14.31;83.48
74708;BME280;63360;50.104;8.074;2023-05-10T12:11:07;96819.25;;;14.44;80.00
74708;BME280;63360;50.104;8.074;2023-05-10T12:13:42;96811.97;;;14.38;80.37
74708;BME280;63360;50.104;8.074;2023-05-10T12:16:20;96822.09;;;14.39;81.54
74708;BME280;63360;50.104;8.074;2023-05-10T12:18:51;96813.97;;;14.29;82.96
74708;BME280;63360;50.104;8.074;2023-05-10T12:21:20;96827.44;;;14.15;85.08
74708;BME280;63360;50.104;8.074;2023-05-10T12:23:49;96831.66;;;14.20;81.89
74708;BME280;63360;50.104;8.074;2023-05-10T12:26:16;96832.56;;;14.12;83.38
74708;BME280;63360;50.104;8.074;2023-05-10T12:28:43;96831.78;;;13.95;84.31
74708;BME280;63360;50.104;8.074;2023-05-10T12:31:10;96845.00;;;13.87;83.24
74708;BME280;63360;50.104;8.074;2023-05-10T12:33:38;96849.31;;;13.67;86.01
74708;BME280;63360;50.104;8.074;2023-05-10T12:36:06;96840.97;;;13.62;86.89
74708;BME280;63360;50.104;8.074;2023-05-10T12:41:02;96838.94;;;13.31;91.32
74708;BME280;63360;50.104;8.074;2023-05-10T12:43:29;96850.94;;;13.32;91.22
74708;BME280;63360;50.104;8.074;2023-05-10T12:45:56;96863.78;;;13.25;90.70
74708;BME280;63360;50.104;8.074;2023-05-10T12:48:23;96862.16;;;13.20;91.03
74708;BME280;63360;50.104;8.074;2023-05-10T12:50:49;96857.91;;;13.16;90.70
74708;BME280;63360;50.104;8.074;2023-05-10T12:53:16;96856.50;;;13.18;92.13
74708;BME280;63360;50.104;8.074;2023-05-10T12:55:43;96864.88;;;13.24;91.97
74708;BME280;63360;50.104;8.074;2023-05-10T12:58:10;96864.41;;;13.34;92.43
74708;BME280;63360;50.104;8.074;2023-05-10T13:00:46;96857.47;;;13.38;90.73
74708;BME280;63360;50.104;8.074;2023-05-10T13:03:12;96855.81;;;13.46;89.13
74708;BME280;63360;50.104;8.074;2023-05-10T13:05:39;96857.47;;;13.38;90.19
74708;BME280;63360;50.104;8.074;2023-05-10T13:08:05;96862.09;;;13.57;88.12
74708;BME280;63360;50.104;8.074;2023-05-10T13:10:32;96873.09;;;13.62;87.28
74708;BME280;63360;50.104;8.074;2023-05-10T13:12:58;96864.38;;;13.58;86.19
74708;BME280;63360;50.104;8.074;2023-05-10T13:15:26;96852.97;;;13.51;89.58
74708;BME280;63360;50.104;8.074;2023-05-10T13:17:53;96862.94;;;13.73;87.95
74708;BME280;63360;50.104;8.074;2023-05-10T13:20:20;96859.84;;;13.83;87.44
74708;BME280;63360;50.104;8.074;2023-05-10T13:22:47;96850.03;;;13.80;90.67
74708;BME280;63360;50.104;8.074;2023-05-10T13:25:15;96849.56;;;13.90;85.81
74708;BME280;63360;50.104;8.074;2023-05-10T13:27:42;96848.53;;;14.07;82.48
74708;BME280;63360;50.104;8.074;2023-05-10T13:30:09;96846.66;;;14.07;80.50
74708;BME280;63360;50.104;8.074;2023-05-10T13:32:35;96853.41;;;14.08;81.24
74708;BME280;63360;50.104;8.074;2023-05-10T13:35:02;96853.50;;;14.12;83.01
74708;BME280;63360;50.104;8.074;2023-05-10T13:37:30;96849.47;;;14.14;80.88
74708;BME280;63360;50.104;8.074;2023-05-10T13:39:56;96854.06;;;14.05;80.95
74708;BME280;63360;50.104;8.074;2023-05-10T13:42:23;96850.63;;;14.01;80.49
74708;BME280;63360;50.104;8.074;2023-05-10T13:44:50;96860.59;;;14.11;82.73
74708;BME280;63360;50.104;8.074;2023-05-10T13:47:16;96848.03;;;14.17;81.19
74708;BME280;63360;50.104;8.074;2023-05-10T13:49:43;96850.75;;;14.20;84.96